SKMDSKNV

Guest
Details From SKMD - Medellin Olaya Herrera
To SKNV - BENITO SALAS
Flight Number -
Tags generated
Created
Modified
Stats Distance 197 nm / 365 km
Max Altitude 19,400 ft / 5,913 m
Waypoints 3
Social Downloads 0
Likes 0
Share VATSIM

Download

Looking for another format? Having issues loading an existing format? Contact us
Advertisement - Login to hide

Notes

Basic altitude profile: - Ascent Rate: 2500ft/min - Ascent Speed: 250kts - Cruise Altitude: 35000ft - Cruise Speed: 420kts - Descent Rate: 1500ft/min - Descent Speed: 250kts Options: - Use NATs: yes - Use PACOTS: yes - Use low airways: yes - Use high airways: yes

Route

SKMD DAGUR SKNV

ID Type Via Altitude Latitude Longitude Leg Dist Tot Dist Heading (true) Name
O SKMD APT - 0 ft / 0 m 6.21996˚ -75.59052˚ - 0 nm - Medellin Olaya Herrera
DAGUR FIX - 19,400 ft / 5,913 m 4.45278˚ -75.46333˚ 106 nm 106 nm 176° / 176° -
O SKNV APT - 0 ft / 0 m 2.95015˚ -75.29400˚ 90 nm 197 nm 174° / 174° BENITO SALAS

Altitude Profile

Advertisement - Login to hide

Weather


0- 5 10 15 20 25 30 35+ Temperature / ° C

Clouds and Precipitation
Forecast for 2017-12-16 00:00 UTC. Updated an hour ago

Ground ~20,000 ft ~40,000 ft Winds

SKMD

Details ICAO SKMD (EOH)
Name Medellin Olaya Herrera
Region Colombia
Timezone America/Bogota (UTC-5.0)
Stats Elevation 4,940 ft / 1,506 m (AMSL)
Location 6.219958° -75.590519°
Runways 1
Magnetic Variation 6.529° W

METAR

SKMD 152200Z 09010KT 9999 FEW040 27/12 A3001

Decode

TAF

Not found

Departure Runways

ID Width Length Bearing (true) Bearing (mag) Surface Threshold Offset Overrun Length
02 148 ft / 45 m 8,324 ft / 2,537 m 10.66° 17.19° Asphalt 1,316 ft / 401 m 0 ft / 0 m
20 148 ft / 45 m 8,324 ft / 2,537 m 190.66° 197.19° Asphalt 1,012 ft / 308 m 0 ft / 0 m

SKNV

Details ICAO SKNV (NVA)
Name BENITO SALAS
Region Colombia
Timezone America/Bogota (UTC-5.0)
Stats Elevation 1,464 ft / 446 m (AMSL)
Location 2.950152° -75.293999°
Runways 1
Magnetic Variation 6.231° W

METAR

SKNV 152200Z 21003KT 100V270 9999 FEW035 33/19 A2975

Decode

TAF

Not found

Destination Runways

ID Width Length Bearing (true) Bearing (mag) Surface Threshold Offset Overrun Length
02 131 ft / 40 m 5,912 ft / 1,802 m 14.16° 20.39° Asphalt 395 ft / 120 m 0 ft / 0 m
20 131 ft / 40 m 5,912 ft / 1,802 m 194.16° 200.39° Asphalt 0 ft / 0 m 190 ft / 58 m